Time;durP1;ratioP1;P1;durP2;ratioP2;P2;SDS_P1;SDS_P2;PMS_P1;PMS_P2;Temp;Humidity;BMP_temperature;BMP_pressure;BME280_temperature;BME280_humidity;BME280_pressure;Samples;Min_cycle;Max_cycle;Signal;HPM_P1;HPM_P2
2021/09/19 00:00:36;;;;;;;1.70;1.13;;;23.40;56.60;;;;;;6292074;28;20565;-72
2021/09/19 00:03:36;;;;;;;2.80;1.30;;;23.40;56.60;;;;;;6302656;28;20463;-72
2021/09/19 00:06:37;;;;;;;1.35;0.90;;;23.40;56.60;;;;;;6316675;28;20027;-71
2021/09/19 00:09:37;;;;;;;2.05;1.13;;;23.40;56.60;;;;;;6297821;28;20058;-71
2021/09/19 00:12:38;;;;;;;1.70;1.20;;;23.40;56.60;;;;;;6291964;28;20484;-71
2021/09/19 00:15:39;;;;;;;1.92;1.23;;;23.40;56.60;;;;;;6298220;28;20025;-72
2021/09/19 00:18:39;;;;;;;2.03;1.10;;;23.40;56.50;;;;;;6300152;28;20375;-72
2021/09/19 00:21:40;;;;;;;1.40;0.90;;;23.40;56.60;;;;;;6316125;28;20050;-71
2021/09/19 00:24:41;;;;;;;1.67;1.10;;;23.40;56.60;;;;;;6300168;28;20059;-72
2021/09/19 00:27:41;;;;;;;2.10;1.10;;;23.40;56.60;;;;;;6291667;28;20033;-73
2021/09/19 00:30:43;;;;;;;1.60;1.20;;;23.40;56.60;;;;;;6306256;28;20032;-72
2021/09/19 00:33:43;;;;;;;1.60;0.98;;;23.40;56.70;;;;;;6298018;28;20032;-72
2021/09/19 00:36:44;;;;;;;1.63;0.98;;;23.40;56.60;;;;;;6316002;28;20598;-72
2021/09/19 00:39:44;;;;;;;1.67;1.15;;;23.30;56.50;;;;;;6301765;28;20037;-72
2021/09/19 00:42:45;;;;;;;1.60;1.08;;;23.40;56.60;;;;;;6291111;28;20490;-71
2021/09/19 00:45:46;;;;;;;1.60;1.00;;;23.40;56.60;;;;;;6312549;28;20044;-72
2021/09/19 00:48:46;;;;;;;1.10;0.90;;;23.40;56.60;;;;;;6311046;28;20035;-71
2021/09/19 00:51:47;;;;;;;1.73;1.02;;;23.40;56.70;;;;;;6290343;28;20028;-72
2021/09/19 00:54:50;;;;;;;1.40;1.00;;;23.40;56.60;;;;;;6302430;28;20386;-72
2021/09/19 00:57:53;;;;;;;1.80;1.15;;;23.40;56.60;;;;;;6315069;28;20037;-72
2021/09/19 01:00:54;;;;;;;1.45;1.00;;;23.30;56.60;;;;;;6304087;28;20399;-72
2021/09/19 01:03:56;;;;;;;0.88;0.70;;;23.40;56.70;;;;;;6312876;28;20111;-72
2021/09/19 01:06:56;;;;;;;2.03;1.00;;;23.40;56.70;;;;;;6290598;28;20416;-71
2021/09/19 01:09:58;;;;;;;1.48;0.85;;;23.40;56.60;;;;;;6299108;28;20056;-72
2021/09/19 01:12:59;;;;;;;2.35;1.10;;;23.40;56.70;;;;;;6316494;28;20031;-71
2021/09/19 01:16:00;;;;;;;1.15;0.85;;;23.30;56.50;;;;;;6311192;28;20534;-72
2021/09/19 01:19:03;;;;;;;1.27;0.88;;;23.40;56.70;;;;;;6315042;28;20024;-72
2021/09/19 01:22:05;;;;;;;1.33;0.88;;;23.30;56.50;;;;;;6315256;28;20483;-71
2021/09/19 01:25:10;;;;;;;1.15;0.82;;;23.40;56.70;;;;;;6306574;28;20024;-71
2021/09/19 01:28:13;;;;;;;1.60;0.98;;;23.30;56.60;;;;;;6315146;28;20105;-71
2021/09/19 01:31:13;;;;;;;1.65;0.95;;;23.40;56.70;;;;;;6298194;28;20024;-72
2021/09/19 01:34:14;;;;;;;1.55;0.98;;;23.40;56.60;;;;;;6296306;28;20085;-72
2021/09/19 01:37:15;;;;;;;1.25;0.70;;;23.40;56.70;;;;;;6290755;28;20033;-72
2021/09/19 01:40:15;;;;;;;1.15;0.85;;;23.30;56.60;;;;;;6297114;28;20472;-72
2021/09/19 01:43:16;;;;;;;1.05;0.80;;;23.40;56.70;;;;;;6315391;28;20478;-72
2021/09/19 01:46:17;;;;;;;2.22;1.10;;;23.30;56.70;;;;;;6305097;28;20039;-72
2021/09/19 01:49:17;;;;;;;1.17;0.68;;;23.40;56.70;;;;;;6315040;28;20067;-72
2021/09/19 01:52:19;;;;;;;1.20;0.90;;;23.40;56.70;;;;;;6292463;28;20032;-72
2021/09/19 01:55:20;;;;;;;1.20;0.80;;;23.30;56.60;;;;;;6294627;28;20073;-72
2021/09/19 01:58:22;;;;;;;1.35;0.80;;;23.40;56.70;;;;;;6315180;28;20028;-72
2021/09/19 02:01:23;;;;;;;0.70;0.60;;;23.40;56.70;;;;;;6301464;28;20043;-71
2021/09/19 02:04:24;;;;;;;1.38;0.90;;;23.30;56.60;;;;;;6289291;28;20323;-71
2021/09/19 02:07:24;;;;;;;1.08;0.70;;;23.30;56.60;;;;;;6310578;28;20445;-72
2021/09/19 02:10:25;;;;;;;0.95;0.80;;;23.40;56.80;;;;;;6315226;28;20063;-72
2021/09/19 02:13:25;;;;;;;0.82;0.75;;;23.30;56.60;;;;;;6294581;28;20066;-72
2021/09/19 02:16:26;;;;;;;2.17;0.80;;;23.40;56.70;;;;;;6305632;28;20077;-72
2021/09/19 02:19:27;;;;;;;1.23;0.60;;;23.30;56.60;;;;;;6319752;28;20035;-72
2021/09/19 02:22:28;;;;;;;1.20;0.90;;;23.40;56.70;;;;;;6300193;28;20025;-72
2021/09/19 02:25:28;;;;;;;0.77;0.68;;;23.30;57.30;;;;;;6295725;28;20060;-72
2021/09/19 02:28:29;;;;;;;1.13;0.93;;;23.30;56.60;;;;;;6319469;28;20480;-71
2021/09/19 02:31:31;;;;;;;0.70;0.60;;;23.30;56.60;;;;;;6312742;28;20546;-71
2021/09/19 02:34:31;;;;;;;0.90;0.80;;;23.40;56.70;;;;;;6319278;28;20233;-72
2021/09/19 02:37:32;;;;;;;1.15;0.70;;;23.30;56.60;;;;;;6301693;28;20051;-72
2021/09/19 02:40:33;;;;;;;1.08;0.85;;;23.30;56.60;;;;;;6293739;28;20040;-71
2021/09/19 02:43:34;;;;;;;0.50;0.50;;;23.40;56.70;;;;;;6317908;28;20020;-71
2021/09/19 02:46:34;;;;;;;0.88;0.75;;;23.30;56.60;;;;;;6311275;28;20027;-72
2021/09/19 02:49:35;;;;;;;0.95;0.65;;;23.30;56.60;;;;;;6293164;28;20417;-72
2021/09/19 02:52:35;;;;;;;0.88;0.60;;;23.30;56.60;;;;;;6308739;28;20906;-72
2021/09/19 02:55:36;;;;;;;0.55;0.50;;;23.30;56.70;;;;;;6318671;28;20024;-71
2021/09/19 02:58:37;;;;;;;0.60;0.60;;;23.30;56.60;;;;;;6308678;28;20388;-72
2021/09/19 03:01:37;;;;;;;0.90;0.80;;;23.40;56.70;;;;;;6292965;28;20327;-71
2021/09/19 03:04:38;;;;;;;0.70;0.60;;;23.30;56.60;;;;;;6293127;28;20505;-71
2021/09/19 03:07:39;;;;;;;0.70;0.60;;;23.30;56.60;;;;;;6304176;28;20091;-72
2021/09/19 03:10:39;;;;;;;1.00;0.60;;;23.30;56.60;;;;;;6318631;28;20107;-71
2021/09/19 03:13:40;;;;;;;0.70;0.70;;;23.30;56.70;;;;;;6310428;28;20078;-71
2021/09/19 03:16:40;;;;;;;0.90;0.52;;;23.30;56.60;;;;;;6294952;28;20081;-72
2021/09/19 03:19:41;;;;;;;0.77;0.55;;;23.30;56.60;;;;;;6316819;28;20101;-72
2021/09/19 03:22:43;;;;;;;2.92;0.60;;;23.30;56.60;;;;;;6308235;28;20365;-72
2021/09/19 03:25:43;;;;;;;0.45;0.43;;;23.30;56.70;;;;;;6292276;28;20040;-72
2021/09/19 03:28:44;;;;;;;0.50;0.50;;;23.30;56.60;;;;;;6301957;28;20125;-72
2021/09/19 03:31:44;;;;;;;1.30;0.70;;;23.30;56.70;;;;;;6292760;28;20028;-72
2021/09/19 03:34:45;;;;;;;0.98;0.80;;;23.30;56.70;;;;;;6306500;28;20016;-72
2021/09/19 03:37:45;;;;;;;0.63;0.52;;;23.30;56.60;;;;;;6299353;28;20027;-71
2021/09/19 03:40:46;;;;;;;1.20;0.70;;;23.40;56.80;;;;;;6317510;28;20032;-71
2021/09/19 03:43:47;;;;;;;0.60;0.50;;;23.30;56.70;;;;;;6301729;28;20035;-72
2021/09/19 03:46:47;;;;;;;0.98;0.60;;;23.30;56.70;;;;;;6292527;28;20036;-72
2021/09/19 03:49:48;;;;;;;0.70;0.68;;;23.30;56.60;;;;;;6314460;28;20106;-71
2021/09/19 03:52:48;;;;;;;0.85;0.68;;;23.30;56.70;;;;;;6308269;28;20028;-71
2021/09/19 03:55:49;;;;;;;1.13;0.80;;;23.30;56.70;;;;;;6298615;28;20458;-72
2021/09/19 03:58:49;;;;;;;0.52;0.45;;;23.30;56.70;;;;;;6304739;28;20089;-72
2021/09/19 04:01:50;;;;;;;0.82;0.57;;;23.30;56.60;;;;;;6317175;28;20024;-71
2021/09/19 04:04:50;;;;;;;0.70;0.55;;;23.30;56.70;;;;;;6296040;28;20024;-72
2021/09/19 04:07:51;;;;;;;0.70;0.55;;;23.30;56.70;;;;;;6291908;28;20304;-71
2021/09/19 04:10:52;;;;;;;0.65;0.50;;;23.30;56.70;;;;;;6316824;28;20028;-71
2021/09/19 04:13:52;;;;;;;1.40;0.50;;;23.30;56.70;;;;;;6308226;28;20032;-71
2021/09/19 04:16:53;;;;;;;0.43;0.43;;;23.40;56.80;;;;;;6291767;28;20090;-72
2021/09/19 04:19:53;;;;;;;0.98;0.52;;;23.30;56.70;;;;;;6307065;28;20047;-71
2021/09/19 04:22:54;;;;;;;2.88;0.43;;;23.30;56.70;;;;;;6316402;28;20089;-71
2021/09/19 04:25:54;;;;;;;0.60;0.60;;;23.30;56.70;;;;;;6292386;28;20040;-72
2021/09/19 04:28:55;;;;;;;0.60;0.50;;;23.40;56.80;;;;;;6297408;28;20112;-71
2021/09/19 04:31:55;;;;;;;0.60;0.60;;;23.30;56.70;;;;;;6296999;28;20103;-72
2021/09/19 04:34:56;;;;;;;0.43;0.40;;;23.30;56.80;;;;;;6304912;28;20058;-72
2021/09/19 04:37:56;;;;;;;0.65;0.52;;;23.40;56.80;;;;;;6316150;28;20467;-71
2021/09/19 04:40:57;;;;;;;1.35;0.60;;;23.40;56.80;;;;;;6294261;28;20035;-72
2021/09/19 04:43:57;;;;;;;0.60;0.38;;;23.30;56.70;;;;;;6293512;28;20112;-72
2021/09/19 04:46:58;;;;;;;0.50;0.50;;;23.40;56.80;;;;;;6316119;28;20479;-72
2021/09/19 04:49:58;;;;;;;0.68;0.68;;;23.30;56.70;;;;;;6303402;28;20090;-72
2021/09/19 04:52:59;;;;;;;1.02;0.50;;;23.30;56.70;;;;;;6291105;28;20029;-72
2021/09/19 04:55:59;;;;;;;0.98;0.60;;;23.40;56.80;;;;;;6310704;28;20059;-72
2021/09/19 04:59:00;;;;;;;0.70;0.50;;;23.30;56.70;;;;;;6313418;28;20036;-72
2021/09/19 05:02:00;;;;;;;1.30;0.80;;;23.30;56.70;;;;;;6297991;28;20024;-72
2021/09/19 05:05:01;;;;;;;0.77;0.47;;;23.30;56.70;;;;;;6309248;28;20066;-72
2021/09/19 05:08:01;;;;;;;0.47;0.40;;;23.30;56.70;;;;;;6340723;28;20097;-72
2021/09/19 05:11:02;;;;;;;0.60;0.40;;;23.30;56.70;;;;;;6320669;28;20578;-72
2021/09/19 05:14:04;;;;;;;0.40;0.30;;;23.30;56.70;;;;;;6311435;28;20205;-72
2021/09/19 05:17:05;;;;;;;0.90;0.50;;;23.30;56.70;;;;;;6313446;28;20024;-72
2021/09/19 05:20:06;;;;;;;0.50;0.50;;;23.30;56.70;;;;;;6308862;28;20402;-72
2021/09/19 05:23:06;;;;;;;0.70;0.60;;;23.40;56.80;;;;;;6290261;28;20297;-72
2021/09/19 05:26:07;;;;;;;0.55;0.47;;;23.40;56.80;;;;;;6303607;28;20483;-72
2021/09/19 05:29:07;;;;;;;0.57;0.50;;;23.30;56.70;;;;;;6314823;28;20096;-72
2021/09/19 05:32:08;;;;;;;0.40;0.40;;;23.30;56.70;;;;;;6293756;28;20025;-72
2021/09/19 05:35:09;;;;;;;0.50;0.40;;;23.30;56.70;;;;;;6300699;28;20029;-72
2021/09/19 05:38:10;;;;;;;0.70;0.40;;;23.30;56.70;;;;;;6290744;28;20032;-72
2021/09/19 05:41:10;;;;;;;0.68;0.60;;;23.30;56.70;;;;;;6301898;28;20148;-72
2021/09/19 05:44:11;;;;;;;0.63;0.52;;;23.30;56.80;;;;;;6318280;28;20032;-72
2021/09/19 05:47:11;;;;;;;0.60;0.60;;;23.30;56.70;;;;;;6300246;28;20391;-72
2021/09/19 05:50:12;;;;;;;0.40;0.40;;;23.40;56.80;;;;;;6312659;28;20031;-72
2021/09/19 05:53:12;;;;;;;1.42;0.50;;;23.30;56.70;;;;;;6319976;28;20399;-71
2021/09/19 05:56:13;;;;;;;0.57;0.50;;;23.30;56.70;;;;;;6310313;28;20024;-72
2021/09/19 05:59:14;;;;;;;0.55;0.55;;;23.30;56.70;;;;;;6294547;28;20097;-72
2021/09/19 06:02:14;;;;;;;0.50;0.50;;;23.40;56.80;;;;;;6311838;28;20233;-72
2021/09/19 06:05:15;;;;;;;0.82;0.47;;;23.30;56.70;;;;;;6310753;28;20029;-72
2021/09/19 06:08:15;;;;;;;0.75;0.43;;;23.30;56.70;;;;;;6319694;28;20048;-72
2021/09/19 06:11:16;;;;;;;0.50;0.50;;;23.40;56.80;;;;;;6311922;28;20469;-72
2021/09/19 06:14:16;;;;;;;1.42;0.32;;;23.40;56.80;;;;;;6294523;28;20104;-72
2021/09/19 06:17:20;;;;;;;0.50;0.50;;;23.30;56.70;;;;;;6309822;28;20050;-72
2021/09/19 06:20:21;;;;;;;0.55;0.40;;;23.30;56.70;;;;;;6319501;28;20032;-72
2021/09/19 06:23:21;;;;;;;0.50;0.50;;;23.40;56.80;;;;;;6295860;28;20596;-72
2021/09/19 06:26:22;;;;;;;0.98;0.60;;;23.40;56.80;;;;;;6300481;28;20055;-72
2021/09/19 06:29:23;;;;;;;0.45;0.45;;;23.30;56.70;;;;;;6319179;28;20415;-72
2021/09/19 06:32:23;;;;;;;0.47;0.45;;;23.30;56.70;;;;;;6310772;28;20029;-72
2021/09/19 06:35:24;;;;;;;0.30;0.30;;;23.40;56.80;;;;;;6319229;28;20024;-72
2021/09/19 06:38:25;;;;;;;0.50;0.40;;;23.30;56.80;;;;;;6298099;28;20028;-72
2021/09/19 06:41:25;;;;;;;0.50;0.50;;;23.40;56.80;;;;;;6297975;28;20475;-72
2021/09/19 06:44:26;;;;;;;0.38;0.32;;;23.30;56.70;;;;;;6319066;28;20028;-72
2021/09/19 06:47:27;;;;;;;0.50;0.40;;;23.30;56.70;;;;;;6307325;28;20031;-71
2021/09/19 06:50:27;;;;;;;0.88;0.63;;;23.30;56.80;;;;;;6293580;28;20024;-72
2021/09/19 06:53:28;;;;;;;0.80;0.50;;;23.30;56.70;;;;;;6312963;28;20073;-72
2021/09/19 06:56:28;;;;;;;0.38;0.30;;;23.30;56.70;;;;;;6315462;28;20036;-72
2021/09/19 06:59:29;;;;;;;0.47;0.40;;;23.40;56.80;;;;;;6293398;28;20500;-72
2021/09/19 07:02:29;;;;;;;1.08;0.60;;;23.40;56.80;;;;;;6306598;28;20036;-71
2021/09/19 07:05:30;;;;;;;0.57;0.40;;;23.30;56.70;;;;;;6315704;28;20211;-72
2021/09/19 07:08:30;;;;;;;0.30;0.30;;;23.30;56.70;;;;;;6318311;28;20059;-71
2021/09/19 07:11:31;;;;;;;0.70;0.50;;;23.30;56.70;;;;;;6318242;28;20153;-72
2021/09/19 07:14:32;;;;;;;0.45;0.45;;;23.30;56.80;;;;;;6303080;28;20543;-72
2021/09/19 07:17:33;;;;;;;0.88;0.50;;;23.30;56.70;;;;;;6312174;28;20396;-72
2021/09/19 07:20:34;;;;;;;0.40;0.40;;;23.30;56.70;;;;;;6292787;28;20399;-72
2021/09/19 07:23:34;;;;;;;0.60;0.50;;;23.30;56.80;;;;;;6306739;28;20074;-72
2021/09/19 07:26:35;;;;;;;0.85;0.40;;;23.40;56.80;;;;;;6318019;28;20428;-72
2021/09/19 07:29:36;;;;;;;0.40;0.40;;;23.30;56.70;;;;;;6296045;28;20036;-71
2021/09/19 07:32:37;;;;;;;0.50;0.50;;;23.30;56.70;;;;;;6297215;28;20024;-72
2021/09/19 07:35:38;;;;;;;0.40;0.40;;;23.30;56.70;;;;;;6300190;28;20111;-72
2021/09/19 07:38:39;;;;;;;0.47;0.47;;;23.30;56.80;;;;;;6304440;28;20028;-72
2021/09/19 07:41:39;;;;;;;0.82;0.40;;;23.30;56.80;;;;;;6317528;28;20040;-72
2021/09/19 07:44:40;;;;;;;0.68;0.50;;;23.30;56.70;;;;;;6297727;28;20036;-72
2021/09/19 07:47:42;;;;;;;0.40;0.40;;;23.30;56.80;;;;;;6294271;28;20399;-72
2021/09/19 07:50:43;;;;;;;0.65;0.55;;;23.30;57.50;;;;;;6317314;28;20036;-72
2021/09/19 07:53:45;;;;;;;0.40;0.40;;;23.30;56.80;;;;;;6307200;28;20064;-71
2021/09/19 07:56:46;;;;;;;0.40;0.40;;;23.30;56.80;;;;;;6292303;28;20036;-72
2021/09/19 07:59:48;;;;;;;0.60;0.60;;;23.30;56.80;;;;;;6310090;28;20463;-72
2021/09/19 08:02:49;;;;;;;0.47;0.45;;;23.30;56.80;;;;;;6316763;28;20024;-72
2021/09/19 08:05:49;;;;;;;0.55;0.40;;;23.30;56.70;;;;;;6291794;28;20040;-72
2021/09/19 08:08:50;;;;;;;0.63;0.50;;;23.30;56.70;;;;;;6299616;28;20050;-71
2021/09/19 08:11:53;;;;;;;0.40;0.40;;;23.30;56.70;;;;;;6317209;28;20017;-72
2021/09/19 08:14:53;;;;;;;0.40;0.40;;;23.30;56.70;;;;;;6311198;28;20020;-72
2021/09/19 08:17:54;;;;;;;0.45;0.40;;;23.30;56.70;;;;;;6317081;28;20356;-72
2021/09/19 08:20:54;;;;;;;0.40;0.40;;;23.40;56.80;;;;;;6290473;28;20085;-72
2021/09/19 08:23:55;;;;;;;0.32;0.32;;;23.30;56.70;;;;;;6298089;28;20020;-71
2021/09/19 08:26:55;;;;;;;0.40;0.40;;;23.30;56.70;;;;;;6316372;28;20072;-71
2021/09/19 08:29:56;;;;;;;0.50;0.40;;;23.30;56.70;;;;;;6303487;28;20025;-72
2021/09/19 08:32:57;;;;;;;0.90;0.50;;;23.40;56.80;;;;;;6316776;28;20024;-72
2021/09/19 08:35:59;;;;;;;0.35;0.35;;;23.40;56.80;;;;;;6294140;28;20103;-72
2021/09/19 08:39:01;;;;;;;0.40;0.40;;;23.30;56.70;;;;;;6295429;28;20020;-72
2021/09/19 08:42:02;;;;;;;0.50;0.40;;;23.30;56.80;;;;;;6316493;28;20085;-72
2021/09/19 08:45:04;;;;;;;1.17;0.50;;;23.30;56.70;;;;;;6302706;28;20523;-72
2021/09/19 08:48:05;;;;;;;0.40;0.30;;;23.30;56.70;;;;;;6291164;28;20021;-72
2021/09/19 08:51:05;;;;;;;0.52;0.47;;;23.30;56.70;;;;;;6289660;28;20372;-72
2021/09/19 08:54:07;;;;;;;0.40;0.40;;;23.30;56.70;;;;;;6290407;28;20059;-72
2021/09/19 08:57:08;;;;;;;0.52;0.50;;;23.30;56.90;;;;;;6290487;28;20024;-72
2021/09/19 09:00:13;;;;;;;0.40;0.40;;;23.30;56.70;;;;;;6298620;28;20184;-72
2021/09/19 09:03:15;;;;;;;0.60;0.38;;;23.30;56.70;;;;;;6290648;28;20029;-72
2021/09/19 09:06:20;;;;;;;0.50;0.50;;;23.40;56.80;;;;;;6328817;28;20035;-73
2021/09/19 09:09:20;;;;;;;0.38;0.38;;;23.30;56.70;;;;;;6338030;28;20077;-72
2021/09/19 09:12:22;;;;;;;0.47;0.47;;;23.30;56.70;;;;;;6312145;28;20479;-72
2021/09/19 09:15:44;;;;;;;0.63;0.40;;;23.30;56.70;;;;;;6298356;28;20037;-72
2021/09/19 09:18:52;;;;;;;0.50;0.40;;;23.40;56.80;;;;;;6289612;28;20293;-72
2021/09/19 09:22:02;;;;;;;0.50;0.40;;;23.30;56.70;;;;;;6310676;28;20036;-72
2021/09/19 09:25:09;;;;;;;0.80;0.50;;;23.30;56.70;;;;;;6310995;28;20028;-72
2021/09/19 09:28:10;;;;;;;0.52;0.50;;;23.40;56.80;;;;;;6290052;28;20029;-72
2021/09/19 09:31:13;;;;;;;0.77;0.52;;;23.30;56.70;;;;;;6302953;28;20032;-72
2021/09/19 09:34:22;;;;;;;0.68;0.57;;;23.30;56.70;;;;;;6309286;28;20425;-73
2021/09/19 09:37:22;;;;;;;0.35;0.35;;;23.30;56.70;;;;;;6312302;28;20024;-72
2021/09/19 09:40:31;;;;;;;0.65;0.50;;;23.30;56.70;;;;;;6310243;28;20126;-72
2021/09/19 09:43:32;;;;;;;0.40;0.40;;;23.30;56.70;;;;;;6289832;28;20488;-72
2021/09/19 09:46:33;;;;;;;0.50;0.38;;;23.30;56.70;;;;;;6306294;28;20096;-72
2021/09/19 09:49:43;;;;;;;0.43;0.43;;;23.30;56.70;;;;;;6283020;28;20056;-72
2021/09/19 09:52:43;;;;;;;0.98;0.50;;;23.30;56.70;;;;;;6286257;28;20032;-72
2021/09/19 09:55:45;;;;;;;0.60;0.45;;;23.30;56.40;;;;;;6285456;28;20118;-72
2021/09/19 09:58:46;;;;;;;0.30;0.30;;;23.30;56.80;;;;;;6288166;28;20023;-71
2021/09/19 10:01:47;;;;;;;0.50;0.50;;;23.30;56.10;;;;;;6286680;28;20037;-72
2021/09/19 10:04:48;;;;;;;1.33;0.80;;;23.30;55.60;;;;;;6287945;28;20036;-72
2021/09/19 10:07:49;;;;;;;0.85;0.80;;;23.30;55.00;;;;;;6284469;28;20407;-72
2021/09/19 10:10:50;;;;;;;2.05;1.30;;;23.20;54.50;;;;;;6286277;28;20043;-72
2021/09/19 10:13:51;;;;;;;1.88;1.02;;;23.20;54.90;;;;;;6285074;28;20116;-71
2021/09/19 10:16:52;;;;;;;1.83;0.98;;;23.20;54.20;;;;;;6281367;28;20025;-72
2021/09/19 10:19:54;;;;;;;3.58;1.63;;;23.20;54.70;;;;;;6284911;28;20081;-72
2021/09/19 10:23:03;;;;;;;2.08;1.40;;;23.20;54.30;;;;;;6286627;28;20024;-71
2021/09/19 10:26:11;;;;;;;2.45;1.52;;;23.20;53.60;;;;;;6286853;28;20032;-72
2021/09/19 10:29:18;;;;;;;3.45;1.60;;;23.20;53.10;;;;;;6287315;28;20028;-73
2021/09/19 10:32:39;;;;;;;3.70;1.40;;;23.20;53.70;;;;;;6282243;28;20090;-74
2021/09/19 10:35:39;;;;;;;5.22;2.03;;;23.20;51.20;;;;;;6273492;28;20028;-71
2021/09/19 10:38:41;;;;;;;2.65;1.45;;;23.30;51.50;;;;;;6291688;28;20028;-71
2021/09/19 10:42:19;;;;;;;5.13;1.67;;;23.30;52.00;;;;;;6284649;28;20437;-71
2021/09/19 10:45:19;;;;;;;3.78;2.30;;;23.30;52.10;;;;;;6273091;28;20029;-72
2021/09/19 10:48:33;;;;;;;7.75;3.22;;;23.30;52.40;;;;;;6291186;28;20514;-71
2021/09/19 10:51:34;;;;;;;9.35;3.38;;;23.30;52.50;;;;;;6290767;28;20387;-72
2021/09/19 10:54:50;;;;;;;6.43;3.25;;;23.30;52.70;;;;;;6291420;28;20029;-72
2021/09/19 10:58:12;;;;;;;9.48;3.72;;;23.30;53.00;;;;;;6288462;28;20380;-72
2021/09/19 11:01:24;;;;;;;9.55;3.80;;;23.30;53.10;;;;;;6286575;28;20037;-72
2021/09/19 11:04:33;;;;;;;9.05;3.72;;;23.30;53.20;;;;;;6286961;28;20766;-72
2021/09/19 11:07:34;;;;;;;12.00;4.70;;;23.30;53.40;;;;;;6289016;28;20044;-72
2021/09/19 11:10:35;;;;;;;8.77;4.18;;;23.30;53.50;;;;;;6290715;28;20121;-72
2021/09/19 11:13:45;;;;;;;10.05;4.25;;;23.30;53.70;;;;;;6284693;28;20021;-73
2021/09/19 11:16:46;;;;;;;17.90;6.55;;;23.30;53.90;;;;;;6285464;28;20032;-72
2021/09/19 11:20:12;;;;;;;13.95;6.30;;;23.30;53.80;;;;;;6287569;28;20484;-72
2021/09/19 11:23:31;;;;;;;17.05;7.10;;;23.30;53.90;;;;;;6271930;28;20036;-73
2021/09/19 11:26:45;;;;;;;19.02;7.47;;;23.30;54.00;;;;;;6288887;28;20028;-72
2021/09/19 11:29:46;;;;;;;16.50;7.63;;;23.30;54.10;;;;;;6287812;28;20522;-72
2021/09/19 11:32:47;;;;;;;19.77;9.30;;;23.30;54.10;;;;;;6289217;28;20025;-71
2021/09/19 11:35:48;;;;;;;23.73;9.70;;;23.30;54.20;;;;;;6290808;28;20045;-72
2021/09/19 11:38:54;;;;;;;18.08;8.25;;;23.30;54.30;;;;;;6288861;28;20037;-72
2021/09/19 11:41:55;;;;;;;24.40;10.13;;;23.30;54.10;;;;;;6288027;28;20055;-72
2021/09/19 11:44:55;;;;;;;25.58;9.63;;;23.30;54.10;;;;;;6284589;28;20029;-72
2021/09/19 11:47:56;;;;;;;24.13;10.18;;;23.30;54.30;;;;;;6280766;28;20024;-71
2021/09/19 11:50:57;;;;;;;27.30;9.90;;;23.30;54.30;;;;;;6289405;28;20024;-72
2021/09/19 11:53:58;;;;;;;22.10;10.30;;;23.30;54.50;;;;;;6282918;28;20495;-72
2021/09/19 11:56:59;;;;;;;22.08;10.20;;;23.30;54.50;;;;;;6288491;28;20063;-72
2021/09/19 12:00:08;;;;;;;27.83;12.05;;;23.30;54.50;;;;;;6288861;28;20063;-72
2021/09/19 12:03:09;;;;;;;23.42;10.57;;;23.30;54.50;;;;;;6289651;28;20035;-72
2021/09/19 12:06:09;;;;;;;24.58;10.68;;;23.30;54.60;;;;;;6289759;28;20029;-72
2021/09/19 12:09:18;;;;;;;21.20;9.18;;;23.30;54.60;;;;;;6287271;28;20094;-72
2021/09/19 12:12:20;;;;;;;22.33;10.07;;;23.30;54.60;;;;;;6271928;28;20078;-72
2021/09/19 12:15:27;;;;;;;22.65;10.35;;;23.40;54.70;;;;;;6283613;28;20033;-72
2021/09/19 12:18:30;;;;;;;24.45;10.68;;;23.40;54.70;;;;;;6288583;28;20441;-71
2021/09/19 12:21:34;;;;;;;28.38;10.98;;;23.40;54.80;;;;;;6287969;28;20041;-71
2021/09/19 12:24:37;;;;;;;22.73;10.60;;;23.40;54.80;;;;;;6286706;28;20025;-72
2021/09/19 12:27:48;;;;;;;24.88;10.73;;;23.40;54.80;;;;;;6289494;28;20028;-72
2021/09/19 12:30:48;;;;;;;24.33;9.65;;;23.40;54.80;;;;;;6284530;28;20115;-72
2021/09/19 12:33:51;;;;;;;24.58;10.90;;;23.30;54.90;;;;;;6290774;28;20480;-72
2021/09/19 12:36:54;;;;;;;25.48;10.32;;;23.40;54.90;;;;;;6290643;28;20040;-72
2021/09/19 12:40:07;;;;;;;23.77;9.55;;;23.30;54.10;;;;;;6290496;28;20029;-71
2021/09/19 12:43:09;;;;;;;22.10;8.95;;;23.30;54.10;;;;;;6289591;28;20764;-71
2021/09/19 12:46:14;;;;;;;22.98;10.00;;;23.30;54.20;;;;;;6290852;28;20032;-72
2021/09/19 12:49:19;;;;;;;19.90;8.50;;;23.30;54.10;;;;;;6290753;28;20024;-72
2021/09/19 12:52:19;;;;;;;20.08;9.02;;;23.30;54.10;;;;;;6290654;28;20028;-72
2021/09/19 12:55:20;;;;;;;20.25;9.05;;;23.30;54.20;;;;;;6290367;28;20028;-72
2021/09/19 12:58:21;;;;;;;21.80;8.32;;;23.30;54.20;;;;;;6290424;28;20024;-72
2021/09/19 13:01:22;;;;;;;19.50;8.57;;;23.30;54.20;;;;;;6290134;28;20025;-72
2021/09/19 13:04:22;;;;;;;19.10;8.18;;;23.30;54.30;;;;;;6290728;28;20039;-72
2021/09/19 13:07:24;;;;;;;17.15;8.15;;;23.30;54.30;;;;;;6290173;28;20380;-72
2021/09/19 13:10:24;;;;;;;25.17;7.75;;;23.40;54.40;;;;;;6289673;28;20562;-72
2021/09/19 13:13:25;;;;;;;19.95;7.25;;;23.30;54.40;;;;;;6288921;28;20028;-71
2021/09/19 13:16:26;;;;;;;23.25;7.95;;;23.40;54.50;;;;;;6276290;28;20156;-72
2021/09/19 13:19:27;;;;;;;13.98;6.93;;;23.30;54.40;;;;;;6290132;28;20111;-71
2021/09/19 13:22:27;;;;;;;16.30;6.80;;;23.30;54.50;;;;;;6290349;28;20107;-71
2021/09/19 13:25:28;;;;;;;15.38;7.28;;;23.30;54.50;;;;;;6289377;28;20024;-72
2021/09/19 13:28:29;;;;;;;15.30;6.95;;;23.40;54.60;;;;;;6289987;28;20051;-72
2021/09/19 13:31:29;;;;;;;15.60;6.80;;;23.30;54.50;;;;;;6289847;28;20373;-72
2021/09/19 13:34:30;;;;;;;13.30;6.28;;;23.30;54.60;;;;;;6290371;28;20137;-72
2021/09/19 13:37:31;;;;;;;13.77;6.50;;;23.40;54.60;;;;;;6290139;28;20067;-72
2021/09/19 13:40:32;;;;;;;13.77;6.22;;;23.30;54.60;;;;;;6290638;28;20048;-72
2021/09/19 13:43:33;;;;;;;13.23;6.30;;;23.30;54.60;;;;;;6290102;28;20484;-72
2021/09/19 13:46:33;;;;;;;14.80;6.57;;;23.30;54.60;;;;;;6289963;28;20024;-71
2021/09/19 13:49:34;;;;;;;15.55;6.28;;;23.30;54.60;;;;;;6290151;28;20534;-72
2021/09/19 13:52:35;;;;;;;13.00;6.00;;;23.30;54.70;;;;;;6289896;28;20104;-72
2021/09/19 13:55:36;;;;;;;13.05;6.53;;;23.30;54.70;;;;;;6287916;28;20051;-71
2021/09/19 13:58:37;;;;;;;10.32;5.80;;;23.30;54.70;;;;;;6287693;28;20116;-71
2021/09/19 14:01:38;;;;;;;10.63;5.90;;;23.30;54.80;;;;;;6288512;28;20496;-71
2021/09/19 14:04:38;;;;;;;11.32;5.55;;;23.30;54.80;;;;;;6291178;28;20036;-72
2021/09/19 14:07:39;;;;;;;9.95;5.22;;;23.30;54.80;;;;;;6294525;28;20048;-72
2021/09/19 14:10:40;;;;;;;11.60;5.35;;;23.30;54.80;;;;;;6294574;28;20029;-72
2021/09/19 14:13:40;;;;;;;9.32;4.90;;;23.30;54.80;;;;;;6292927;28;20065;-71
2021/09/19 14:16:41;;;;;;;10.32;4.88;;;23.30;54.80;;;;;;6272317;28;20079;-71
2021/09/19 14:19:42;;;;;;;10.13;4.63;;;23.30;54.80;;;;;;6294869;28;20262;-71
2021/09/19 14:22:43;;;;;;;12.88;5.53;;;23.30;54.80;;;;;;6294271;28;20028;-71
2021/09/19 14:25:43;;;;;;;10.73;5.00;;;23.30;54.90;;;;;;6294495;28;20134;-72
2021/09/19 14:28:45;;;;;;;9.80;5.05;;;23.30;54.90;;;;;;6293962;28;20055;-72
2021/09/19 14:31:46;;;;;;;9.07;4.90;;;23.30;54.90;;;;;;6294055;28;20476;-72
2021/09/19 14:34:46;;;;;;;8.63;4.50;;;23.30;54.90;;;;;;6294489;28;20032;-72
2021/09/19 14:37:47;;;;;;;8.63;4.43;;;23.30;55.00;;;;;;6289986;28;20032;-71
2021/09/19 14:40:48;;;;;;;9.82;4.32;;;23.30;55.00;;;;;;6294058;28;20047;-72
2021/09/19 14:43:48;;;;;;;8.73;3.90;;;23.30;55.00;;;;;;6293998;28;20107;-72
2021/09/19 14:46:49;;;;;;;10.68;4.53;;;23.30;54.90;;;;;;6294904;28;20422;-72
2021/09/19 14:49:49;;;;;;;7.03;3.85;;;23.30;54.90;;;;;;6294273;28;20066;-72
2021/09/19 14:52:50;;;;;;;7.05;3.95;;;23.30;55.00;;;;;;6293780;28;20414;-71
2021/09/19 14:55:51;;;;;;;8.23;4.20;;;23.30;55.00;;;;;;6293158;28;20075;-72
2021/09/19 14:58:52;;;;;;;7.43;3.97;;;23.30;55.10;;;;;;6293567;28;20391;-72
2021/09/19 15:01:53;;;;;;;9.88;4.45;;;23.30;55.00;;;;;;6293715;28;20252;-72
2021/09/19 15:04:53;;;;;;;8.98;4.20;;;23.30;55.00;;;;;;6292622;28;20491;-71
2021/09/19 15:07:54;;;;;;;7.28;3.95;;;23.30;55.10;;;;;;6294321;28;20067;-72
2021/09/19 15:10:54;;;;;;;6.32;3.25;;;23.30;55.10;;;;;;6294089;28;20021;-72
2021/09/19 15:13:55;;;;;;;6.70;3.50;;;23.30;55.20;;;;;;6289523;28;20078;-71
2021/09/19 15:16:55;;;;;;;6.43;3.47;;;23.30;55.10;;;;;;6267602;28;20029;-72
2021/09/19 15:19:56;;;;;;;6.25;3.80;;;23.30;55.10;;;;;;6285541;28;20443;-72
2021/09/19 15:22:57;;;;;;;6.55;3.42;;;23.30;55.10;;;;;;6292983;28;20027;-72
2021/09/19 15:25:57;;;;;;;6.57;3.50;;;23.30;55.10;;;;;;6293441;28;20218;-71
2021/09/19 15:28:58;;;;;;;5.15;2.88;;;23.30;55.20;;;;;;6293103;28;20063;-72
2021/09/19 15:32:00;;;;;;;7.65;3.63;;;23.30;55.10;;;;;;6293682;28;20412;-72
2021/09/19 15:35:00;;;;;;;5.25;3.00;;;23.30;55.10;;;;;;6293142;28;20024;-72
2021/09/19 15:38:03;;;;;;;4.93;2.78;;;23.30;55.10;;;;;;6293259;28;20029;-71
2021/09/19 15:41:11;;;;;;;8.50;4.15;;;23.30;55.10;;;;;;6292617;28;20039;-72